createdAt,value
2023-04-02T00:00:29.653Z,6.15
2023-04-02T00:02:25.865Z,6.22
2023-04-02T00:04:23.492Z,6.13
2023-04-02T00:05:56.200Z,6.16
2023-04-02T00:07:31.196Z,6.21
2023-04-02T00:09:05.880Z,6.16
2023-04-02T00:10:38.063Z,6.14
2023-04-02T00:12:22.412Z,6.17
2023-04-02T00:13:53.976Z,6.13
2023-04-02T00:15:25.810Z,6.09
2023-04-02T00:16:57.970Z,6.03
2023-04-02T00:18:29.678Z,6.01
2023-04-02T00:20:06.382Z,6.11
2023-04-02T00:21:38.861Z,6.10
2023-04-02T00:23:11.768Z,6.09
2023-04-02T00:24:43.491Z,6.13
2023-04-02T00:26:23.071Z,6.12
2023-04-02T00:27:54.902Z,6.19
2023-04-02T00:29:26.529Z,6.21
2023-04-02T00:30:59.553Z,6.17
2023-04-02T00:32:31.781Z,6.21
2023-04-02T00:34:04.790Z,6.20
2023-04-02T00:35:37.882Z,6.19
2023-04-02T00:37:11.309Z,6.21
2023-04-02T00:38:43.931Z,6.22
2023-04-02T00:40:19.972Z,6.27
2023-04-02T00:42:05.074Z,6.29
2023-04-02T00:43:38.254Z,6.30
2023-04-02T00:45:14.171Z,6.32
2023-04-02T00:46:49.760Z,6.33
2023-04-02T00:48:36.890Z,6.30
2023-04-02T00:50:22.012Z,6.28
2023-04-02T00:51:56.881Z,6.28
2023-04-02T00:53:29.549Z,6.28
2023-04-02T00:55:03.922Z,6.29
2023-04-02T00:56:37.706Z,6.26
2023-04-02T00:58:13.856Z,6.26
2023-04-02T00:59:51.312Z,6.23
2023-04-02T01:01:24.251Z,6.21
2023-04-02T01:03:29.123Z,6.13
2023-04-02T01:05:02.288Z,6.05
2023-04-02T01:06:35.665Z,6.09
2023-04-02T01:08:11.168Z,6.12
2023-04-02T01:09:50.353Z,6.14
2023-04-02T01:11:32.236Z,6.18
2023-04-02T01:13:08.753Z,6.13
2023-04-02T01:14:45.812Z,6.13
2023-04-02T01:16:19.826Z,6.18
2023-04-02T01:18:03.335Z,6.14
2023-04-02T01:20:11.812Z,6.15
2023-04-02T01:21:52.957Z,6.11
2023-04-02T01:23:27.813Z,6.04
2023-04-02T01:24:59.455Z,6.03
2023-04-02T01:26:52.558Z,6.04
2023-04-02T01:28:27.236Z,6.04
2023-04-02T01:30:00.743Z,6.08
2023-04-02T01:31:33.306Z,6.11
2023-04-02T01:33:05.638Z,6.05
2023-04-02T01:34:37.902Z,5.97
2023-04-02T01:36:11.802Z,6.03
2023-04-02T01:37:46.692Z,6.05
2023-04-02T01:39:24.525Z,6.01
2023-04-02T01:40:58.818Z,5.98
2023-04-02T01:42:33.299Z,5.96
2023-04-02T01:44:06.456Z,5.91
2023-04-02T01:45:39.418Z,5.84
2023-04-02T01:47:11.681Z,5.81
2023-04-02T01:48:43.262Z,5.81
2023-04-02T01:50:22.753Z,5.83
2023-04-02T01:51:56.680Z,5.84
2023-04-02T01:53:28.592Z,5.87
2023-04-02T01:55:00.202Z,5.84
2023-04-02T01:56:31.794Z,5.92
2023-04-02T01:58:03.930Z,5.93
2023-04-02T01:59:35.808Z,6.02
2023-04-02T02:01:12.217Z,5.98
2023-04-02T02:02:44.009Z,6.02
2023-04-02T02:04:16.013Z,6.02
2023-04-02T02:05:47.609Z,5.99
2023-04-02T02:07:20.501Z,6.03
2023-04-02T02:08:53.482Z,6.02
2023-04-02T02:10:27.518Z,6.03
2023-04-02T02:11:59.248Z,6.01
2023-04-02T02:13:31.906Z,6.01
2023-04-02T02:15:03.974Z,5.92
2023-04-02T02:16:41.978Z,5.96
2023-04-02T02:18:13.759Z,5.93
2023-04-02T02:19:46.351Z,5.87
2023-04-02T02:21:23.518Z,5.88
2023-04-02T02:22:55.356Z,5.86
2023-04-02T02:24:28.860Z,5.86
2023-04-02T02:26:00.449Z,5.95
2023-04-02T02:27:47.241Z,5.84
2023-04-02T02:29:18.880Z,5.87
2023-04-02T02:30:51.498Z,5.81
2023-04-02T02:32:27.673Z,5.77
2023-04-02T02:34:00.964Z,5.68
2023-04-02T02:35:35.266Z,5.69
2023-04-02T02:37:07.567Z,5.69
2023-04-02T02:38:49.432Z,5.75
2023-04-02T02:40:23.881Z,5.80
2023-04-02T02:41:56.568Z,5.82
2023-04-02T02:43:28.225Z,5.87
2023-04-02T02:45:00.436Z,5.91
2023-04-02T02:46:32.040Z,5.91
2023-04-02T02:48:05.402Z,5.89
2023-04-02T02:49:39.452Z,5.86
2023-04-02T02:51:17.735Z,5.85
2023-04-02T02:52:51.495Z,5.94
2023-04-02T02:54:23.087Z,5.94
2023-04-02T02:55:55.958Z,5.95
2023-04-02T02:57:28.932Z,6.02
2023-04-02T02:59:00.673Z,6.00
2023-04-02T03:00:33.692Z,5.98
2023-04-02T03:02:06.912Z,5.95
2023-04-02T03:03:40.591Z,5.96
2023-04-02T03:05:16.561Z,6.01
2023-04-02T03:06:49.165Z,6.03
2023-04-02T03:08:23.020Z,6.03
2023-04-02T03:09:57.546Z,6.06
2023-04-02T03:11:32.472Z,6.01
2023-04-02T03:13:06.964Z,6.02
2023-04-02T03:14:40.287Z,6.03
2023-04-02T03:16:12.960Z,6.05
2023-04-02T03:17:46.420Z,6.03
2023-04-02T03:19:24.751Z,6.07
2023-04-02T03:20:57.555Z,6.07
2023-04-02T03:22:32.019Z,6.04
2023-04-02T03:24:05.713Z,6.07
2023-04-02T03:25:39.808Z,6.07
2023-04-02T03:27:13.242Z,6.02
2023-04-02T03:28:47.429Z,6.08
2023-04-02T03:30:29.580Z,6.10
2023-04-02T03:32:03.696Z,6.11
2023-04-02T03:33:36.211Z,6.07
2023-04-02T03:35:14.821Z,6.11
2023-04-02T03:36:49.083Z,6.12
2023-04-02T03:38:21.963Z,6.12
2023-04-02T03:39:55.649Z,6.10
2023-04-02T03:41:31.294Z,6.10
2023-04-02T03:43:04.241Z,6.10
2023-04-02T03:44:37.999Z,6.09
2023-04-02T03:46:16.607Z,6.12
2023-04-02T03:47:51.188Z,6.13
2023-04-02T03:49:26.632Z,6.09
2023-04-02T03:51:00.958Z,6.08
2023-04-02T03:52:34.133Z,6.07
2023-04-02T03:54:05.860Z,6.04
2023-04-02T03:55:38.082Z,6.05
2023-04-02T03:57:12.024Z,6.10
2023-04-02T03:58:46.956Z,6.12
2023-04-02T04:00:20.746Z,6.10
2023-04-02T04:01:54.240Z,6.10
2023-04-02T04:03:28.861Z,6.03
2023-04-02T04:05:00.636Z,6.04
2023-04-02T04:06:33.646Z,6.06
2023-04-02T04:08:06.589Z,6.08
2023-04-02T04:09:38.264Z,6.05
2023-04-02T04:11:10.822Z,6.06
2023-04-02T04:12:43.875Z,6.08
2023-04-02T04:14:17.234Z,6.09
2023-04-02T04:15:51.578Z,6.07
2023-04-02T04:17:30.144Z,6.10
2023-04-02T04:19:03.940Z,6.08
2023-04-02T04:20:36.613Z,6.10
2023-04-02T04:22:10.662Z,6.12
2023-04-02T04:23:50.642Z,6.12
2023-04-02T04:25:25.429Z,6.13
2023-04-02T04:26:58.381Z,6.16
2023-04-02T04:28:32.842Z,6.13
2023-04-02T04:30:06.311Z,6.12
2023-04-02T04:31:39.377Z,6.12
2023-04-02T04:33:15.348Z,6.11
2023-04-02T04:34:51.596Z,6.07
2023-04-02T04:36:28.586Z,6.11
2023-04-02T04:38:04.066Z,6.12
2023-04-02T04:39:42.622Z,6.14
2023-04-02T04:41:15.977Z,6.10
2023-04-02T04:42:48.237Z,6.07
2023-04-02T04:44:21.962Z,6.08
2023-04-02T04:45:55.782Z,6.06
2023-04-02T04:47:30.982Z,6.13
2023-04-02T04:49:04.989Z,6.10
2023-04-02T04:50:38.490Z,6.10
2023-04-02T04:52:13.968Z,6.14
2023-04-02T04:53:47.927Z,6.16
2023-04-02T04:55:28.436Z,6.15
2023-04-02T04:57:01.341Z,6.12
2023-04-02T04:58:35.254Z,6.12
2023-04-02T05:00:12.902Z,6.12
2023-04-02T05:01:46.649Z,6.15
2023-04-02T05:03:22.474Z,6.09
2023-04-02T05:04:54.174Z,6.08
2023-04-02T05:06:32.931Z,6.13
2023-04-02T05:08:05.784Z,6.18
2023-04-02T05:09:40.385Z,6.15
2023-04-02T05:11:13.810Z,6.15
2023-04-02T05:12:46.838Z,6.17
2023-04-02T05:14:23.883Z,6.19
2023-04-02T05:16:01.196Z,6.19
2023-04-02T05:17:34.167Z,6.19
2023-04-02T05:19:07.407Z,6.18
2023-04-02T05:20:41.370Z,6.15
2023-04-02T05:22:17.550Z,6.18
2023-04-02T05:23:50.876Z,6.17
2023-04-02T05:25:34.221Z,6.15
2023-04-02T05:27:12.733Z,6.21
2023-04-02T05:28:47.047Z,6.21
2023-04-02T05:30:36.068Z,6.16
2023-04-02T05:32:09.251Z,6.18
2023-04-02T05:33:41.084Z,6.18
2023-04-02T05:35:16.912Z,6.20
2023-04-02T05:36:48.801Z,6.19
2023-04-02T05:38:21.650Z,6.27
2023-04-02T05:39:54.461Z,6.24
2023-04-02T05:41:28.435Z,6.26
2023-04-02T05:43:00.357Z,6.27
2023-04-02T05:44:32.644Z,6.24
2023-04-02T05:46:08.082Z,6.30
2023-04-02T05:47:41.195Z,6.31
2023-04-02T05:49:16.816Z,6.30
2023-04-02T05:50:49.611Z,6.30
2023-04-02T05:52:23.530Z,6.32
2023-04-02T05:53:55.958Z,6.35
2023-04-02T05:55:32.582Z,6.34
2023-04-02T05:57:07.854Z,6.35
2023-04-02T05:58:44.033Z,6.36
2023-04-02T06:00:20.410Z,6.36
2023-04-02T06:01:53.551Z,6.37
2023-04-02T06:03:27.667Z,6.38
2023-04-02T06:05:01.205Z,6.40
2023-04-02T06:06:49.671Z,6.38
2023-04-02T06:08:22.748Z,6.40
2023-04-02T06:09:56.051Z,6.44
2023-04-02T06:11:29.225Z,6.41
2023-04-02T06:13:03.750Z,6.46
2023-04-02T06:14:35.585Z,6.46
2023-04-02T06:16:07.474Z,6.48
2023-04-02T06:17:43.685Z,6.48
2023-04-02T06:19:17.250Z,6.51
2023-04-02T06:20:48.942Z,6.52
2023-04-02T06:22:24.342Z,6.52
2023-04-02T06:23:56.976Z,6.58
2023-04-02T06:25:30.147Z,6.59
2023-04-02T06:27:03.004Z,6.65
2023-04-02T06:28:40.148Z,6.66
2023-04-02T06:30:16.192Z,6.64
2023-04-02T06:31:49.648Z,6.67
2023-04-02T06:33:21.463Z,6.66
2023-04-02T06:34:53.304Z,6.66
2023-04-02T06:36:25.113Z,6.63
2023-04-02T06:37:57.609Z,6.64
2023-04-02T06:39:29.255Z,6.68
2023-04-02T06:41:05.022Z,6.73
2023-04-02T06:42:37.281Z,6.70
2023-04-02T06:44:13.434Z,6.69
2023-04-02T06:45:45.677Z,6.72
2023-04-02T06:47:22.786Z,6.70
2023-04-02T06:48:57.001Z,6.81
2023-04-02T06:50:31.464Z,6.83
2023-04-02T06:52:04.495Z,6.85
2023-04-02T06:53:37.156Z,6.91
2023-04-02T06:55:24.643Z,6.90
2023-04-02T06:56:56.587Z,6.91
2023-04-02T06:58:28.300Z,6.97
2023-04-02T07:00:04.051Z,7.02
2023-04-02T07:01:37.004Z,6.94
2023-04-02T07:03:14.471Z,7.02
2023-04-02T07:04:46.167Z,7.05
2023-04-02T07:06:18.644Z,7.06
2023-04-02T07:07:50.267Z,7.12
2023-04-02T07:09:22.596Z,7.06
2023-04-02T07:10:58.439Z,7.11
2023-04-02T07:12:30.411Z,7.14
2023-04-02T07:14:02.238Z,7.18
2023-04-02T07:15:35.470Z,7.18
2023-04-02T07:17:07.437Z,7.21
2023-04-02T07:18:39.016Z,7.19
2023-04-02T07:20:20.582Z,7.20
2023-04-02T07:21:52.217Z,7.29
2023-04-02T07:23:23.997Z,7.23
2023-04-02T07:24:55.649Z,7.16
2023-04-02T07:26:27.949Z,7.13
2023-04-02T07:27:59.652Z,7.14
2023-04-02T07:29:31.260Z,7.15
2023-04-02T07:31:04.377Z,7.25
2023-04-02T07:32:36.663Z,7.36
2023-04-02T07:34:08.357Z,7.35
2023-04-02T07:35:40.380Z,7.25
2023-04-02T07:37:13.032Z,7.37
2023-04-02T07:38:44.698Z,7.44
2023-04-02T07:40:17.840Z,7.46
2023-04-02T07:41:53.242Z,7.60
2023-04-02T07:43:24.820Z,7.77
2023-04-02T07:44:56.462Z,7.69
2023-04-02T07:46:29.672Z,7.65
2023-04-02T07:48:04.744Z,7.58
2023-04-02T07:49:36.439Z,7.62
2023-04-02T07:51:15.042Z,7.84
2023-04-02T07:52:46.653Z,8.05
2023-04-02T07:54:18.219Z,7.80
2023-04-02T07:55:52.179Z,7.77
2023-04-02T07:57:23.907Z,7.94
2023-04-02T07:58:55.761Z,8.13
2023-04-02T08:00:29.117Z,8.13
2023-04-02T08:02:02.837Z,8.10
2023-04-02T08:03:34.617Z,7.99
2023-04-02T08:05:06.852Z,7.99
2023-04-02T08:06:38.440Z,8.09
2023-04-02T08:08:10.055Z,8.20
2023-04-02T08:09:41.652Z,8.04
2023-04-02T08:11:13.309Z,7.85
2023-04-02T08:12:47.086Z,7.96
2023-04-02T08:14:18.768Z,8.14
2023-04-02T08:15:50.523Z,8.21
2023-04-02T08:17:23.596Z,8.20
2023-04-02T08:18:56.418Z,8.24
2023-04-02T08:20:28.485Z,8.36
2023-04-02T08:22:10.129Z,8.38
2023-04-02T08:23:42.813Z,8.36
2023-04-02T08:25:14.585Z,8.30
2023-04-02T08:26:46.427Z,8.33
2023-04-02T08:28:18.093Z,8.31
2023-04-02T08:29:49.717Z,8.27
2023-04-02T08:31:21.676Z,8.24
2023-04-02T08:32:54.777Z,8.37
2023-04-02T08:34:26.460Z,8.32
2023-04-02T08:35:58.263Z,8.50
2023-04-02T08:37:29.941Z,8.72
2023-04-02T08:39:01.966Z,8.37
2023-04-02T08:40:36.170Z,8.46
2023-04-02T08:42:17.262Z,8.32
2023-04-02T08:44:04.123Z,8.49
2023-04-02T08:45:42.204Z,8.22
2023-04-02T08:47:13.989Z,8.40
2023-04-02T08:48:49.349Z,8.57
2023-04-02T08:50:25.628Z,8.60
2023-04-02T08:51:57.550Z,8.89
2023-04-02T08:53:31.196Z,8.74
2023-04-02T08:55:03.617Z,8.42
2023-04-02T08:56:37.414Z,8.70
2023-04-02T08:58:13.852Z,9.00
2023-04-02T08:59:45.635Z,9.20
2023-04-02T09:01:24.461Z,9.20
2023-04-02T09:02:56.813Z,8.95
2023-04-02T09:04:29.969Z,8.87
2023-04-02T09:06:01.680Z,8.83
2023-04-02T09:07:33.666Z,9.10
2023-04-02T09:09:05.622Z,8.98
2023-04-02T09:10:40.716Z,9.03
2023-04-02T09:12:16.642Z,9.15
2023-04-02T09:13:50.500Z,8.99
2023-04-02T09:15:25.722Z,9.25
2023-04-02T09:16:59.264Z,9.59
2023-04-02T09:18:31.168Z,9.57
2023-04-02T09:20:17.177Z,9.46
2023-04-02T09:21:57.077Z,9.60
2023-04-02T09:23:28.791Z,9.40
2023-04-02T09:25:02.150Z,9.54
2023-04-02T09:26:34.087Z,9.75
2023-04-02T09:28:06.012Z,9.85
2023-04-02T09:29:44.687Z,9.63
2023-04-02T09:31:19.986Z,9.77
2023-04-02T09:32:52.976Z,10.14
2023-04-02T09:34:28.994Z,9.84
2023-04-02T09:36:02.094Z,10.00
2023-04-02T09:37:33.961Z,9.77
2023-04-02T09:39:17.014Z,9.70
2023-04-02T09:40:50.096Z,10.04
2023-04-02T09:42:33.895Z,10.12
2023-04-02T09:44:13.189Z,10.17
2023-04-02T09:45:45.307Z,10.14
2023-04-02T09:47:24.295Z,10.28
2023-04-02T09:48:58.493Z,10.58
2023-04-02T09:50:33.665Z,10.70
2023-04-02T09:52:27.857Z,10.64
2023-04-02T09:54:12.305Z,10.59
2023-04-02T09:55:43.957Z,10.14
2023-04-02T09:57:23.851Z,10.37
2023-04-02T09:59:04.543Z,10.15
2023-04-02T10:00:36.528Z,9.79
2023-04-02T10:02:23.506Z,9.80
2023-04-02T10:03:55.974Z,9.83
2023-04-02T10:05:39.998Z,9.85
2023-04-02T10:07:34.927Z,10.03
2023-04-02T10:09:20.303Z,9.87
2023-04-02T10:10:53.308Z,9.80
2023-04-02T10:12:24.984Z,9.97
2023-04-02T10:14:00.689Z,10.17
2023-04-02T10:15:34.038Z,10.07
2023-04-02T10:17:08.263Z,9.99
2023-04-02T10:18:43.293Z,10.05
2023-04-02T10:20:17.910Z,9.96
2023-04-02T10:21:49.611Z,10.37
2023-04-02T10:23:24.778Z,10.54
2023-04-02T10:24:56.607Z,11.02
2023-04-02T10:26:46.882Z,11.12
2023-04-02T10:28:31.321Z,11.15
2023-04-02T10:30:11.419Z,11.36
2023-04-02T10:31:47.427Z,11.65
2023-04-02T10:33:21.500Z,11.63
2023-04-02T10:34:57.377Z,11.35
2023-04-02T10:36:36.265Z,11.32
2023-04-02T10:38:26.395Z,10.92
2023-04-02T10:39:58.551Z,11.27
2023-04-02T10:41:31.809Z,11.14
2023-04-02T10:43:28.427Z,11.73
2023-04-02T10:45:19.825Z,11.65
2023-04-02T10:46:58.190Z,11.52
2023-04-02T10:48:32.714Z,11.67
2023-04-02T10:50:24.521Z,11.04
2023-04-02T10:51:59.012Z,11.19
2023-04-02T10:53:33.491Z,11.00
2023-04-02T10:55:06.673Z,11.33
2023-04-02T10:56:50.004Z,11.63
2023-04-02T10:58:24.256Z,11.68
2023-04-02T10:59:57.695Z,11.83
2023-04-02T11:01:29.915Z,12.36
2023-04-02T11:03:04.820Z,11.78
2023-04-02T11:04:39.474Z,12.00
2023-04-02T11:06:14.179Z,11.51
2023-04-02T11:07:52.295Z,11.65
2023-04-02T11:09:26.677Z,11.83
2023-04-02T11:11:00.018Z,12.07
2023-04-02T11:12:41.556Z,11.80
2023-04-02T11:14:17.169Z,11.67
2023-04-02T11:15:48.914Z,11.33
2023-04-02T11:17:21.331Z,11.13
2023-04-02T11:19:10.519Z,11.26
2023-04-02T11:20:56.283Z,11.21
2023-04-02T11:22:28.005Z,11.15
2023-04-02T11:24:00.367Z,11.25
2023-04-02T11:25:33.533Z,11.50
2023-04-02T11:27:07.579Z,11.60
2023-04-02T11:28:39.278Z,11.48
2023-04-02T11:30:24.442Z,11.45
2023-04-02T11:32:14.792Z,11.94
2023-04-02T11:33:48.824Z,11.78
2023-04-02T11:35:27.756Z,12.20
2023-04-02T11:37:00.362Z,11.92
2023-04-02T11:38:52.336Z,11.57
2023-04-02T11:40:47.176Z,11.68
2023-04-02T11:42:24.790Z,12.02
2023-04-02T11:44:00.406Z,11.72
2023-04-02T11:46:02.392Z,11.68
2023-04-02T11:47:34.143Z,11.96
2023-04-02T11:49:36.014Z,12.07
2023-04-02T11:51:12.141Z,11.89
2023-04-02T11:52:51.825Z,12.07
2023-04-02T11:54:26.671Z,12.21
2023-04-02T11:56:19.106Z,12.26
2023-04-02T11:57:56.247Z,12.32
2023-04-02T11:59:29.139Z,12.21
2023-04-02T12:01:22.657Z,12.13
2023-04-02T12:03:03.405Z,12.48
2023-04-02T12:05:04.394Z,12.60
2023-04-02T12:06:48.191Z,12.65
2023-04-02T12:08:27.503Z,12.99
2023-04-02T12:09:59.416Z,12.66
2023-04-02T12:11:33.683Z,12.70
2023-04-02T12:13:05.348Z,12.96
2023-04-02T12:14:43.634Z,12.32
2023-04-02T12:16:15.520Z,12.23
2023-04-02T12:17:47.281Z,13.04
2023-04-02T12:19:19.105Z,12.88
2023-04-02T12:20:52.033Z,13.06
2023-04-02T12:22:24.726Z,13.66
2023-04-02T12:23:57.815Z,13.62
2023-04-02T12:25:31.500Z,12.72
2023-04-02T12:27:15.652Z,13.06
2023-04-02T12:28:47.773Z,13.06
2023-04-02T12:30:20.714Z,13.65
2023-04-02T12:31:52.617Z,13.55
2023-04-02T12:33:29.494Z,13.35
2023-04-02T12:35:04.914Z,13.81
2023-04-02T12:36:36.612Z,13.05
2023-04-02T12:38:19.194Z,13.18
2023-04-02T12:39:55.487Z,13.81
2023-04-02T12:41:30.225Z,13.63
2023-04-02T12:43:06.265Z,13.93
2023-04-02T12:44:38.034Z,13.92
2023-04-02T12:46:09.752Z,13.53
2023-04-02T12:47:44.319Z,13.54
2023-04-02T12:49:27.087Z,12.90
2023-04-02T12:50:58.833Z,13.15
2023-04-02T12:52:30.637Z,13.14
2023-04-02T12:54:02.445Z,13.41
2023-04-02T12:55:34.281Z,13.49
2023-04-02T12:57:33.676Z,13.08
2023-04-02T12:59:18.662Z,13.33
2023-04-02T13:00:50.878Z,13.55
2023-04-02T13:02:23.374Z,13.18
2023-04-02T13:04:04.513Z,13.24
2023-04-02T13:05:38.039Z,13.52
2023-04-02T13:07:14.600Z,14.08
2023-04-02T13:08:46.359Z,14.05
2023-04-02T13:10:23.245Z,13.53
2023-04-02T13:11:54.913Z,14.43
2023-04-02T13:13:30.170Z,14.11
2023-04-02T13:15:04.597Z,15.19
2023-04-02T13:16:36.670Z,15.42
2023-04-02T13:18:19.152Z,15.05
2023-04-02T13:19:51.052Z,14.49
2023-04-02T13:21:28.556Z,15.00
2023-04-02T13:23:01.495Z,15.55
2023-04-02T13:24:33.289Z,13.98
2023-04-02T13:26:26.290Z,13.89
2023-04-02T13:27:58.237Z,13.93
2023-04-02T13:29:30.188Z,14.57
2023-04-02T13:31:03.176Z,14.44
2023-04-02T13:32:34.871Z,14.94
2023-04-02T13:34:06.492Z,14.35
2023-04-02T13:35:38.146Z,14.87
2023-04-02T13:37:10.582Z,15.11
2023-04-02T13:38:42.190Z,14.60
2023-04-02T13:40:14.809Z,15.26
2023-04-02T13:41:47.964Z,14.36
2023-04-02T13:43:20.069Z,15.08
2023-04-02T13:44:54.491Z,15.35
2023-04-02T13:46:28.890Z,15.05
2023-04-02T13:48:03.623Z,13.77
2023-04-02T13:49:35.944Z,14.13
2023-04-02T13:51:09.366Z,14.06
2023-04-02T13:52:41.160Z,15.26
2023-04-02T13:54:17.222Z,15.57
2023-04-02T13:55:48.827Z,15.08
2023-04-02T13:57:20.785Z,15.06
2023-04-02T13:58:52.547Z,15.81
2023-04-02T14:00:30.194Z,15.33
2023-04-02T14:02:14.316Z,15.20
2023-04-02T14:03:46.130Z,15.35
2023-04-02T14:05:26.781Z,14.83
2023-04-02T14:07:24.629Z,15.81
2023-04-02T14:09:02.484Z,15.37
2023-04-02T14:10:51.233Z,15.19
2023-04-02T14:12:28.571Z,14.56
2023-04-02T14:14:30.213Z,15.66
2023-04-02T14:16:16.862Z,15.58
2023-04-02T14:17:58.026Z,15.69
2023-04-02T14:19:48.888Z,15.47
2023-04-02T14:21:25.442Z,14.88
2023-04-02T14:23:10.533Z,15.25
2023-04-02T14:24:45.099Z,16.01
2023-04-02T14:26:19.182Z,15.04
2023-04-02T14:27:55.160Z,15.50
2023-04-02T14:29:29.444Z,15.04
2023-04-02T14:31:03.437Z,15.36
2023-04-02T14:32:38.188Z,15.62
2023-04-02T14:34:15.917Z,15.73
2023-04-02T14:35:49.317Z,15.53
2023-04-02T14:37:22.958Z,15.59
2023-04-02T14:38:56.033Z,15.07
2023-04-02T14:40:29.801Z,15.01
2023-04-02T14:42:02.590Z,13.95
2023-04-02T14:43:38.065Z,14.14
2023-04-02T14:45:12.142Z,14.14
2023-04-02T14:46:47.141Z,13.99
2023-04-02T14:48:31.594Z,13.36
2023-04-02T14:50:10.899Z,13.47
2023-04-02T14:51:44.234Z,13.13
2023-04-02T14:53:18.372Z,13.16
2023-04-02T14:54:52.246Z,13.19
2023-04-02T14:56:24.166Z,12.82
2023-04-02T14:57:55.834Z,12.75
2023-04-02T14:59:29.622Z,12.23
2023-04-02T15:01:02.904Z,12.02
2023-04-02T15:02:43.273Z,11.61
2023-04-02T15:04:17.203Z,11.48
2023-04-02T15:05:52.127Z,11.33
2023-04-02T15:07:24.985Z,11.17
2023-04-02T15:09:09.259Z,11.23
2023-04-02T15:11:00.161Z,11.08
2023-04-02T15:12:36.143Z,10.90
2023-04-02T15:14:13.060Z,11.25
2023-04-02T15:15:47.906Z,10.81
2023-04-02T15:17:20.428Z,10.95
2023-04-02T15:18:52.340Z,10.80
2023-04-02T15:20:26.833Z,10.99
2023-04-02T15:22:25.067Z,10.89
2023-04-02T15:24:07.307Z,10.60
2023-04-02T15:25:45.542Z,10.72
2023-04-02T15:27:30.526Z,10.67
2023-04-02T15:29:04.213Z,10.66
2023-04-02T15:30:44.146Z,10.69
2023-04-02T15:32:27.360Z,10.78
2023-04-02T15:34:26.927Z,11.15
2023-04-02T15:36:04.218Z,10.86
2023-04-02T15:37:50.700Z,10.87
2023-04-02T15:39:29.479Z,10.82
2023-04-02T15:41:02.094Z,10.75
2023-04-02T15:42:50.709Z,10.89
2023-04-02T15:44:27.408Z,10.76
2023-04-02T15:46:09.912Z,10.81
2023-04-02T15:47:45.895Z,10.70
2023-04-02T15:49:32.774Z,10.78
2023-04-02T15:51:12.717Z,10.93
2023-04-02T15:52:50.769Z,10.96
2023-04-02T15:54:30.945Z,10.96
2023-04-02T15:56:08.367Z,10.89
2023-04-02T15:57:53.543Z,10.93
2023-04-02T15:59:39.334Z,11.42
2023-04-02T16:01:15.919Z,11.08
2023-04-02T16:03:28.763Z,11.09
2023-04-02T16:05:03.803Z,10.92
2023-04-02T16:06:38.024Z,10.93
2023-04-02T16:08:35.545Z,10.94
2023-04-02T16:10:09.671Z,10.97
2023-04-02T16:11:44.041Z,11.03
2023-04-02T16:13:19.384Z,11.00
2023-04-02T16:14:51.057Z,11.01
2023-04-02T16:16:25.092Z,10.97
2023-04-02T16:17:58.876Z,11.00
2023-04-02T16:19:34.334Z,11.02
2023-04-02T16:21:06.557Z,11.03
2023-04-02T16:22:53.377Z,11.11
2023-04-02T16:24:37.759Z,11.12
2023-04-02T16:26:21.923Z,11.13
2023-04-02T16:27:56.750Z,11.10
2023-04-02T16:29:51.419Z,11.02
2023-04-02T16:31:27.574Z,11.27
2023-04-02T16:33:07.852Z,11.23
2023-04-02T16:34:41.522Z,11.09
2023-04-02T16:36:21.523Z,10.97
2023-04-02T16:37:56.396Z,10.97
2023-04-02T16:39:39.743Z,10.97
2023-04-02T16:41:16.535Z,10.94
2023-04-02T16:42:49.723Z,10.84
2023-04-02T16:44:29.226Z,10.84
2023-04-02T16:46:05.784Z,10.77
2023-04-02T16:47:46.778Z,10.75
2023-04-02T16:49:23.516Z,10.74
2023-04-02T16:51:07.473Z,10.72
2023-04-02T16:52:41.789Z,10.69
2023-04-02T16:54:16.386Z,10.63
2023-04-02T16:55:56.461Z,10.68
2023-04-02T16:57:58.247Z,10.63
2023-04-02T16:59:34.893Z,10.60
2023-04-02T17:01:16.348Z,10.62
2023-04-02T17:02:54.828Z,10.64
2023-04-02T17:04:50.878Z,10.54
2023-04-02T17:06:29.920Z,10.54
2023-04-02T17:08:13.223Z,10.49
2023-04-02T17:09:48.160Z,10.46
2023-04-02T17:11:23.905Z,10.34
2023-04-02T17:13:00.752Z,10.48
2023-04-02T17:14:34.862Z,10.34
2023-04-02T17:16:12.530Z,10.36
2023-04-02T17:17:44.860Z,10.24
2023-04-02T17:19:16.901Z,10.34
2023-04-02T17:20:51.611Z,10.15
2023-04-02T17:22:26.210Z,10.39
2023-04-02T17:23:58.747Z,10.19
2023-04-02T17:25:31.758Z,10.06
2023-04-02T17:27:06.411Z,10.10
2023-04-02T17:28:38.129Z,9.98
2023-04-02T17:30:14.745Z,10.10
2023-04-02T17:31:48.453Z,10.22
2023-04-02T17:33:22.215Z,10.39
2023-04-02T17:34:53.981Z,10.10
2023-04-02T17:36:34.098Z,10.11
2023-04-02T17:38:08.959Z,10.04
2023-04-02T17:39:42.608Z,9.92
2023-04-02T17:41:17.066Z,9.95
2023-04-02T17:42:52.619Z,9.96
2023-04-02T17:44:30.349Z,9.82
2023-04-02T17:46:03.118Z,9.73
2023-04-02T17:47:43.765Z,9.74
2023-04-02T17:49:18.171Z,9.75
2023-04-02T17:51:02.468Z,9.74
2023-04-02T17:52:35.582Z,9.71
2023-04-02T17:54:19.218Z,9.79
2023-04-02T17:55:55.950Z,9.80
2023-04-02T17:57:41.250Z,9.73
2023-04-02T17:59:21.703Z,9.86
2023-04-02T18:01:00.114Z,9.78
2023-04-02T18:02:39.013Z,9.91
2023-04-02T18:04:18.923Z,9.73
2023-04-02T18:05:52.807Z,9.82
2023-04-02T18:07:38.439Z,9.79
2023-04-02T18:09:29.580Z,9.77
2023-04-02T18:13:43.919Z,9.77
2023-04-02T18:15:38.409Z,9.95
2023-04-02T18:17:47.240Z,9.86
2023-04-02T18:19:52.613Z,9.79
2023-04-02T18:22:05.399Z,9.76
2023-04-02T18:25:54.352Z,9.77
2023-04-02T18:28:05.228Z,9.72
2023-04-02T18:30:01.147Z,9.66
2023-04-02T18:31:43.616Z,9.50
2023-04-02T18:33:38.052Z,9.44
2023-04-02T18:35:47.875Z,9.34
2023-04-02T18:37:26.767Z,9.45
2023-04-02T18:41:27.122Z,9.58
2023-04-02T18:43:14.047Z,9.33
2023-04-02T18:44:54.606Z,9.17
2023-04-02T18:46:31.098Z,9.16
2023-04-02T18:48:20.101Z,9.11
2023-04-02T18:50:12.070Z,9.20
2023-04-02T18:51:55.693Z,9.05
2023-04-02T18:53:28.621Z,9.17
2023-04-02T18:55:05.764Z,9.15
2023-04-02T18:56:38.613Z,9.23
2023-04-02T18:58:12.292Z,9.19
2023-04-02T18:59:46.645Z,8.97
2023-04-02T19:01:21.357Z,9.11
2023-04-02T19:02:54.068Z,8.92
2023-04-02T19:04:28.802Z,8.87
2023-04-02T19:06:03.224Z,8.77
2023-04-02T19:07:38.030Z,9.00
2023-04-02T19:09:13.080Z,8.96
2023-04-02T19:12:40.701Z,8.84
2023-04-02T19:14:13.526Z,8.87
2023-04-02T19:16:03.494Z,8.87
2023-04-02T19:17:36.902Z,8.74
2023-04-02T19:19:11.943Z,8.69
2023-04-02T19:20:50.839Z,8.62
2023-04-02T19:22:35.121Z,8.71
2023-04-02T19:24:15.029Z,8.71
2023-04-02T19:25:57.208Z,8.78
2023-04-02T19:27:31.918Z,8.63
2023-04-02T19:29:11.425Z,8.50
2023-04-02T19:31:07.509Z,8.28
2023-04-02T19:32:43.256Z,8.30
2023-04-02T19:34:22.773Z,8.50
2023-04-02T19:35:59.460Z,8.60
2023-04-02T19:37:33.168Z,8.47
2023-04-02T19:39:13.692Z,8.48
2023-04-02T19:40:46.167Z,8.23
2023-04-02T19:42:22.987Z,8.20
2023-04-02T19:43:54.749Z,8.35
2023-04-02T19:45:34.453Z,8.24
2023-04-02T19:47:06.302Z,8.26
2023-04-02T19:48:43.001Z,8.25
2023-04-02T19:50:14.885Z,8.06
2023-04-02T19:51:47.890Z,8.19
2023-04-02T19:53:19.602Z,8.28
2023-04-02T19:54:53.842Z,7.97
2023-04-02T19:56:26.702Z,8.10
2023-04-02T19:58:12.578Z,8.09
2023-04-02T19:59:49.153Z,8.00
2023-04-02T20:01:21.014Z,7.83
2023-04-02T20:02:52.997Z,7.80
2023-04-02T20:04:24.713Z,7.95
2023-04-02T20:05:58.439Z,7.88
2023-04-02T20:07:32.027Z,7.84
2023-04-02T20:09:03.795Z,8.05
2023-04-02T20:10:35.613Z,7.94
2023-04-02T20:12:07.524Z,8.03
2023-04-02T20:13:39.139Z,8.00
2023-04-02T20:15:11.624Z,7.90
2023-04-02T20:16:52.189Z,8.17
2023-04-02T20:18:27.061Z,7.94
2023-04-02T20:19:58.685Z,8.00
2023-04-02T20:21:38.373Z,7.90
2023-04-02T20:23:11.733Z,7.75
2023-04-02T20:24:43.428Z,7.83
2023-04-02T20:26:15.026Z,7.89
2023-04-02T20:27:48.588Z,7.77
2023-04-02T20:29:20.262Z,7.82
2023-04-02T20:30:52.187Z,7.80
2023-04-02T20:32:24.399Z,7.95
2023-04-02T20:33:56.497Z,7.74
2023-04-02T20:35:29.612Z,7.97
2023-04-02T20:37:04.558Z,8.12
2023-04-02T20:38:37.672Z,7.90
2023-04-02T20:40:10.761Z,7.83
2023-04-02T20:41:42.550Z,7.85
2023-04-02T20:43:14.374Z,8.02
2023-04-02T20:44:46.238Z,7.85
2023-04-02T20:46:18.266Z,7.67
2023-04-02T20:47:49.979Z,7.54
2023-04-02T20:49:24.043Z,7.66
2023-04-02T20:50:58.106Z,7.54
2023-04-02T20:52:30.313Z,7.64
2023-04-02T20:54:03.430Z,7.78
2023-04-02T20:55:35.142Z,7.71
2023-04-02T20:57:07.126Z,7.82
2023-04-02T20:58:41.269Z,7.61
2023-04-02T21:00:19.261Z,7.82
2023-04-02T21:01:53.439Z,8.06
2023-04-02T21:03:25.537Z,7.81
2023-04-02T21:04:57.326Z,7.83
2023-04-02T21:06:29.985Z,7.53
2023-04-02T21:08:01.963Z,7.45
2023-04-02T21:09:37.428Z,7.54
2023-04-02T21:11:10.520Z,7.40
2023-04-02T21:12:44.534Z,7.51
2023-04-02T21:14:16.759Z,7.43
2023-04-02T21:15:51.882Z,7.54